sensor_id;sensor_type;location;lat;lon;timestamp;pressure;altitude;pressure_sealevel;temperature;humidity
6128;BME280;7073;42.672;23.256;2023-04-02T00:01:18;93519.78;;;9.59;70.15
6128;BME280;7073;42.672;23.256;2023-04-02T00:04:14;93515.72;;;9.52;70.82
6128;BME280;7073;42.672;23.256;2023-04-02T00:06:49;93518.22;;;9.47;71.17
6128;BME280;7073;42.672;23.256;2023-04-02T00:09:29;93520.97;;;9.29;70.59
6128;BME280;7073;42.672;23.256;2023-04-02T00:11:57;93504.47;;;9.35;70.11
6128;BME280;7073;42.672;23.256;2023-04-02T00:14:27;93505.66;;;9.55;70.91
6128;BME280;7073;42.672;23.256;2023-04-02T00:16:56;93518.81;;;9.37;70.98
6128;BME280;7073;42.672;23.256;2023-04-02T00:19:28;93504.78;;;9.38;70.04
6128;BME280;7073;42.672;23.256;2023-04-02T00:21:59;93525.22;;;9.58;69.72
6128;BME280;7073;42.672;23.256;2023-04-02T00:24:26;93523.16;;;9.60;68.85
6128;BME280;7073;42.672;23.256;2023-04-02T00:26:53;93514.81;;;9.58;68.57
6128;BME280;7073;42.672;23.256;2023-04-02T00:29:20;93506.16;;;9.80;66.95
6128;BME280;7073;42.672;23.256;2023-04-02T00:31:49;93515.50;;;9.93;66.68
6128;BME280;7073;42.672;23.256;2023-04-02T00:34:20;93504.63;;;9.96;65.49
6128;BME280;7073;42.672;23.256;2023-04-02T00:36:48;93513.75;;;10.10;64.03
6128;BME280;7073;42.672;23.256;2023-04-02T00:39:22;93511.25;;;10.15;64.64
6128;BME280;7073;42.672;23.256;2023-04-02T00:41:51;93525.88;;;10.05;65.17
6128;BME280;7073;42.672;23.256;2023-04-02T00:44:29;93530.50;;;10.14;64.33
6128;BME280;7073;42.672;23.256;2023-04-02T00:46:58;93510.00;;;10.06;65.20
6128;BME280;7073;42.672;23.256;2023-04-02T00:49:35;93519.06;;;10.04;65.91
6128;BME280;7073;42.672;23.256;2023-04-02T00:52:04;93497.16;;;9.71;66.96
6128;BME280;7073;42.672;23.256;2023-04-02T00:54:38;93520.03;;;9.86;66.21
6128;BME280;7073;42.672;23.256;2023-04-02T00:57:14;93511.31;;;9.92;65.57
6128;BME280;7073;42.672;23.256;2023-04-02T00:59:49;93512.38;;;9.79;66.67
6128;BME280;7073;42.672;23.256;2023-04-02T01:02:29;93509.81;;;9.68;66.49
6128;BME280;7073;42.672;23.256;2023-04-02T01:04:58;93515.34;;;9.71;67.48
6128;BME280;7073;42.672;23.256;2023-04-02T01:07:43;93510.06;;;9.55;67.42
6128;BME280;7073;42.672;23.256;2023-04-02T01:10:33;93520.81;;;9.58;67.08
6128;BME280;7073;42.672;23.256;2023-04-02T01:13:11;93514.22;;;9.67;66.33
6128;BME280;7073;42.672;23.256;2023-04-02T01:15:41;93520.31;;;9.61;66.27
6128;BME280;7073;42.672;23.256;2023-04-02T01:18:22;93524.06;;;9.54;66.74
6128;BME280;7073;42.672;23.256;2023-04-02T01:21:15;93519.97;;;9.69;66.73
6128;BME280;7073;42.672;23.256;2023-04-02T01:23:53;93510.81;;;9.67;66.72
6128;BME280;7073;42.672;23.256;2023-04-02T01:26:39;93516.59;;;9.69;66.36
6128;BME280;7073;42.672;23.256;2023-04-02T01:29:12;93517.63;;;9.68;65.94
6128;BME280;7073;42.672;23.256;2023-04-02T01:31:41;93518.94;;;9.82;65.14
6128;BME280;7073;42.672;23.256;2023-04-02T01:34:13;93519.25;;;9.85;64.27
6128;BME280;7073;42.672;23.256;2023-04-02T01:36:47;93523.28;;;9.93;64.13
6128;BME280;7073;42.672;23.256;2023-04-02T01:39:27;93527.22;;;10.07;63.93
6128;BME280;7073;42.672;23.256;2023-04-02T01:42:02;93526.63;;;10.17;63.38
6128;BME280;7073;42.672;23.256;2023-04-02T01:44:36;93534.19;;;9.90;63.56
6128;BME280;7073;42.672;23.256;2023-04-02T01:47:10;93521.28;;;9.95;63.61
6128;BME280;7073;42.672;23.256;2023-04-02T01:49:38;93538.41;;;9.79;64.49
6128;BME280;7073;42.672;23.256;2023-04-02T01:52:06;93520.59;;;9.88;63.83
6128;BME280;7073;42.672;23.256;2023-04-02T01:54:33;93518.78;;;9.89;63.66
6128;BME280;7073;42.672;23.256;2023-04-02T01:57:03;93519.59;;;9.89;63.17
6128;BME280;7073;42.672;23.256;2023-04-02T01:59:30;93510.56;;;9.80;64.21
6128;BME280;7073;42.672;23.256;2023-04-02T02:02:00;93509.78;;;9.79;63.91
6128;BME280;7073;42.672;23.256;2023-04-02T02:04:28;93517.63;;;9.68;64.99
6128;BME280;7073;42.672;23.256;2023-04-02T02:06:56;93509.88;;;9.84;62.97
6128;BME280;7073;42.672;23.256;2023-04-02T02:09:27;93505.66;;;9.95;62.97
6128;BME280;7073;42.672;23.256;2023-04-02T02:11:56;93509.09;;;9.84;63.16
6128;BME280;7073;42.672;23.256;2023-04-02T02:14:25;93504.09;;;9.82;63.11
6128;BME280;7073;42.672;23.256;2023-04-02T02:16:53;93508.47;;;9.94;62.94
6128;BME280;7073;42.672;23.256;2023-04-02T02:19:27;93506.03;;;9.87;62.74
6128;BME280;7073;42.672;23.256;2023-04-02T02:21:57;93505.44;;;9.85;62.66
6128;BME280;7073;42.672;23.256;2023-04-02T02:24:28;93513.47;;;9.95;62.23
6128;BME280;7073;42.672;23.256;2023-04-02T02:27:06;93514.22;;;9.96;62.07
6128;BME280;7073;42.672;23.256;2023-04-02T02:29:40;93506.66;;;9.66;62.99
6128;BME280;7073;42.672;23.256;2023-04-02T02:32:09;93519.25;;;9.85;62.84
6128;BME280;7073;42.672;23.256;2023-04-02T02:34:42;93517.63;;;9.96;62.70
6128;BME280;7073;42.672;23.256;2023-04-02T02:37:15;93527.41;;;9.77;63.46
6128;BME280;7073;42.672;23.256;2023-04-02T02:39:44;93524.97;;;9.71;64.24
6128;BME280;7073;42.672;23.256;2023-04-02T02:42:17;93511.97;;;9.71;64.18
6128;BME280;7073;42.672;23.256;2023-04-02T02:44:49;93503.84;;;9.56;64.59
6128;BME280;7073;42.672;23.256;2023-04-02T02:47:20;93515.91;;;9.62;64.61
6128;BME280;7073;42.672;23.256;2023-04-02T02:49:52;93521.28;;;9.44;64.98
6128;BME280;7073;42.672;23.256;2023-04-02T02:52:21;93507.81;;;9.47;65.38
6128;BME280;7073;42.672;23.256;2023-04-02T02:54:51;93518.88;;;9.54;64.75
6128;BME280;7073;42.672;23.256;2023-04-02T02:57:21;93508.72;;;9.64;64.50
6128;BME280;7073;42.672;23.256;2023-04-02T02:59:50;93507.31;;;9.73;64.38
6128;BME280;7073;42.672;23.256;2023-04-02T03:02:17;93501.34;;;9.61;64.78
6128;BME280;7073;42.672;23.256;2023-04-02T03:04:46;93518.22;;;9.47;64.92
6128;BME280;7073;42.672;23.256;2023-04-02T03:07:15;93511.97;;;9.71;63.23
6128;BME280;7073;42.672;23.256;2023-04-02T03:09:48;93529.66;;;9.85;62.65
6128;BME280;7073;42.672;23.256;2023-04-02T03:12:35;93510.34;;;9.81;62.98
6128;BME280;7073;42.672;23.256;2023-04-02T03:15:12;93517.06;;;9.66;63.66
6128;BME280;7073;42.672;23.256;2023-04-02T03:17:44;93532.06;;;9.75;62.76
6128;BME280;7073;42.672;23.256;2023-04-02T03:20:16;93519.09;;;9.64;63.38
6128;BME280;7073;42.672;23.256;2023-04-02T03:22:54;93515.56;;;9.70;63.14
6128;BME280;7073;42.672;23.256;2023-04-02T03:25:30;93528.84;;;9.85;63.14
6128;BME280;7073;42.672;23.256;2023-04-02T03:28:03;93524.00;;;9.89;62.83
6128;BME280;7073;42.672;23.256;2023-04-02T03:30:36;93531.16;;;9.81;62.96
6128;BME280;7073;42.672;23.256;2023-04-02T03:33:10;93535.66;;;9.86;61.96
6128;BME280;7073;42.672;23.256;2023-04-02T03:35:42;93530.44;;;9.86;61.76
6128;BME280;7073;42.672;23.256;2023-04-02T03:38:15;93534.50;;;9.94;61.85
6128;BME280;7073;42.672;23.256;2023-04-02T03:40:52;93529.75;;;9.91;62.03
6128;BME280;7073;42.672;23.256;2023-04-02T03:43:23;93540.50;;;9.94;61.93
6128;BME280;7073;42.672;23.256;2023-04-02T03:45:55;93537.16;;;9.82;61.47
6128;BME280;7073;42.672;23.256;2023-04-02T03:48:27;93536.53;;;9.92;61.56
6128;BME280;7073;42.672;23.256;2023-04-02T03:50:59;93544.94;;;9.82;61.46
6128;BME280;7073;42.672;23.256;2023-04-02T03:53:30;93530.00;;;9.77;61.98
6128;BME280;7073;42.672;23.256;2023-04-02T03:55:58;93538.53;;;9.61;62.59
6128;BME280;7073;42.672;23.256;2023-04-02T03:58:30;93539.41;;;9.67;62.70
6128;BME280;7073;42.672;23.256;2023-04-02T04:01:01;93531.22;;;9.58;62.71
6128;BME280;7073;42.672;23.256;2023-04-02T04:03:36;93531.06;;;9.65;62.81
6128;BME280;7073;42.672;23.256;2023-04-02T04:06:07;93535.47;;;9.76;62.28
6128;BME280;7073;42.672;23.256;2023-04-02T04:08:41;93536.81;;;9.67;62.45
6128;BME280;7073;42.672;23.256;2023-04-02T04:11:13;93535.63;;;9.58;62.71
6128;BME280;7073;42.672;23.256;2023-04-02T04:13:44;93553.78;;;9.69;62.18
6128;BME280;7073;42.672;23.256;2023-04-02T04:16:15;93535.47;;;9.76;60.79
6128;BME280;7073;42.672;23.256;2023-04-02T04:18:49;93521.91;;;9.62;61.35
6128;BME280;7073;42.672;23.256;2023-04-02T04:21:23;93554.78;;;9.80;61.25
6128;BME280;7073;42.672;23.256;2023-04-02T04:24:00;93550.25;;;9.87;61.75
6128;BME280;7073;42.672;23.256;2023-04-02T04:26:35;93550.81;;;9.77;61.47
6128;BME280;7073;42.672;23.256;2023-04-02T04:29:13;93544.59;;;9.90;61.03
6128;BME280;7073;42.672;23.256;2023-04-02T04:31:44;93546.00;;;9.58;61.99
6128;BME280;7073;42.672;23.256;2023-04-02T04:34:16;93554.59;;;9.47;62.62
6128;BME280;7073;42.672;23.256;2023-04-02T04:36:48;93562.50;;;9.52;62.50
6128;BME280;7073;42.672;23.256;2023-04-02T04:39:25;93550.63;;;9.67;61.75
6128;BME280;7073;42.672;23.256;2023-04-02T04:41:56;93560.22;;;9.67;60.96
6128;BME280;7073;42.672;23.256;2023-04-02T04:44:37;93562.69;;;9.85;61.15
6128;BME280;7073;42.672;23.256;2023-04-02T04:47:07;93565.06;;;9.87;61.15
6128;BME280;7073;42.672;23.256;2023-04-02T04:49:41;93562.81;;;9.78;60.99
6128;BME280;7073;42.672;23.256;2023-04-02T04:52:13;93553.84;;;9.86;61.16
6128;BME280;7073;42.672;23.256;2023-04-02T04:54:44;93566.13;;;9.74;60.87
6128;BME280;7073;42.672;23.256;2023-04-02T04:57:21;93561.28;;;10.06;59.79
6128;BME280;7073;42.672;23.256;2023-04-02T04:59:55;93562.91;;;10.35;59.61
6128;BME280;7073;42.672;23.256;2023-04-02T05:02:25;93562.19;;;10.39;58.54
6128;BME280;7073;42.672;23.256;2023-04-02T05:04:55;93575.78;;;10.41;58.26
6128;BME280;7073;42.672;23.256;2023-04-02T05:07:26;93574.28;;;10.46;57.72
6128;BME280;7073;42.672;23.256;2023-04-02T05:09:58;93586.97;;;10.42;57.24
6128;BME280;7073;42.672;23.256;2023-04-02T05:12:31;93574.31;;;10.62;57.51
6128;BME280;7073;42.672;23.256;2023-04-02T05:15:07;93562.03;;;10.74;56.36
6128;BME280;7073;42.672;23.256;2023-04-02T05:17:43;93578.94;;;11.05;55.83
6128;BME280;7073;42.672;23.256;2023-04-02T05:20:15;93571.81;;;11.17;55.77
6128;BME280;7073;42.672;23.256;2023-04-02T05:22:48;93577.22;;;11.11;55.34
6128;BME280;7073;42.672;23.256;2023-04-02T05:25:21;93579.94;;;11.04;54.53
6128;BME280;7073;42.672;23.256;2023-04-02T05:27:54;93569.28;;;11.39;54.33
6128;BME280;7073;42.672;23.256;2023-04-02T05:30:52;93583.44;;;11.26;58.37
6128;BME280;7073;42.672;23.256;2023-04-02T05:33:23;93585.97;;;11.04;62.88
6128;BME280;7073;42.672;23.256;2023-04-02T05:35:56;93582.44;;;10.66;66.50
6128;BME280;7073;42.672;23.256;2023-04-02T05:38:26;93574.63;;;10.66;67.52
6128;BME280;7073;42.672;23.256;2023-04-02T05:40:59;93583.03;;;11.01;65.71
6128;BME280;7073;42.672;23.256;2023-04-02T05:43:29;93586.81;;;10.93;65.91
6128;BME280;7073;42.672;23.256;2023-04-02T05:46:01;93592.84;;;11.11;65.01
6128;BME280;7073;42.672;23.256;2023-04-02T05:48:33;93582.56;;;11.04;66.59
6128;BME280;7073;42.672;23.256;2023-04-02T05:51:02;93592.66;;;10.84;67.27
6128;BME280;7073;42.672;23.256;2023-04-02T05:53:33;93591.84;;;10.67;67.82
6128;BME280;7073;42.672;23.256;2023-04-02T05:56:05;93593.34;;;10.34;69.17
6128;BME280;7073;42.672;23.256;2023-04-02T05:58:40;93589.59;;;10.87;67.01
6128;BME280;7073;42.672;23.256;2023-04-02T06:01:31;93591.72;;;10.90;62.38
6128;BME280;7073;42.672;23.256;2023-04-02T06:04:06;93598.19;;;10.87;65.03
6128;BME280;7073;42.672;23.256;2023-04-02T06:06:55;93601.28;;;11.18;64.86
6128;BME280;7073;42.672;23.256;2023-04-02T06:09:29;93604.91;;;11.66;63.16
6128;BME280;7073;42.672;23.256;2023-04-02T06:12:08;93607.69;;;11.10;65.74
6128;BME280;7073;42.672;23.256;2023-04-02T06:14:37;93600.25;;;11.35;65.21
6128;BME280;7073;42.672;23.256;2023-04-02T06:17:04;93604.00;;;11.06;67.03
6128;BME280;7073;42.672;23.256;2023-04-02T06:19:34;93593.47;;;11.34;65.36
6128;BME280;7073;42.672;23.256;2023-04-02T06:22:09;93598.84;;;11.83;63.32
6128;BME280;7073;42.672;23.256;2023-04-02T06:24:43;93603.97;;;11.94;63.03
6128;BME280;7073;42.672;23.256;2023-04-02T06:27:14;93609.72;;;12.13;60.92
6128;BME280;7073;42.672;23.256;2023-04-02T06:29:44;93603.81;;;12.01;62.71
6128;BME280;7073;42.672;23.256;2023-04-02T06:32:16;93607.69;;;12.20;60.90
6128;BME280;7073;42.672;23.256;2023-04-02T06:34:44;93590.34;;;12.84;58.57
6128;BME280;7073;42.672;23.256;2023-04-02T06:37:15;93606.31;;;12.82;55.23
6128;BME280;7073;42.672;23.256;2023-04-02T06:39:45;93610.44;;;12.78;51.61
6128;BME280;7073;42.672;23.256;2023-04-02T06:42:19;93610.75;;;13.09;53.36
6128;BME280;7073;42.672;23.256;2023-04-02T06:44:48;93616.94;;;13.03;49.90
6128;BME280;7073;42.672;23.256;2023-04-02T06:47:21;93629.81;;;12.82;49.42
6128;BME280;7073;42.672;23.256;2023-04-02T06:49:54;93637.75;;;12.66;49.30
6128;BME280;7073;42.672;23.256;2023-04-02T06:52:26;93630.69;;;12.66;49.53
6128;BME280;7073;42.672;23.256;2023-04-02T06:54:53;93634.53;;;12.59;50.56
6128;BME280;7073;42.672;23.256;2023-04-02T06:57:22;93647.78;;;12.52;50.22
6128;BME280;7073;42.672;23.256;2023-04-02T06:59:48;93637.91;;;12.33;49.82
6128;BME280;7073;42.672;23.256;2023-04-02T07:02:23;93645.91;;;12.48;50.14
6128;BME280;7073;42.672;23.256;2023-04-02T07:04:53;93639.19;;;12.57;50.53
6128;BME280;7073;42.672;23.256;2023-04-02T07:07:21;93640.91;;;12.68;49.55
6128;BME280;7073;42.672;23.256;2023-04-02T07:09:48;93642.34;;;12.80;49.99
6128;BME280;7073;42.672;23.256;2023-04-02T07:12:19;93643.28;;;12.96;50.62
6128;BME280;7073;42.672;23.256;2023-04-02T07:14:49;93647.22;;;12.99;49.05
6128;BME280;7073;42.672;23.256;2023-04-02T07:17:17;93652.97;;;13.22;48.53
6128;BME280;7073;42.672;23.256;2023-04-02T07:19:44;93651.31;;;13.11;48.35
6128;BME280;7073;42.672;23.256;2023-04-02T07:22:14;93649.81;;;13.52;48.28
6128;BME280;7073;42.672;23.256;2023-04-02T07:24:41;93659.00;;;13.01;48.96
6128;BME280;7073;42.672;23.256;2023-04-02T07:27:08;93650.59;;;13.21;49.16
6128;BME280;7073;42.672;23.256;2023-04-02T07:29:35;93664.09;;;13.39;48.21
6128;BME280;7073;42.672;23.256;2023-04-02T07:32:08;93668.34;;;13.45;48.83
6128;BME280;7073;42.672;23.256;2023-04-02T07:34:35;93656.75;;;13.36;48.28
6128;BME280;7073;42.672;23.256;2023-04-02T07:37:02;93654.06;;;13.58;47.87
6128;BME280;7073;42.672;23.256;2023-04-02T07:39:29;93656.78;;;13.73;48.17
6128;BME280;7073;42.672;23.256;2023-04-02T07:41:57;93671.22;;;13.81;47.78
6128;BME280;7073;42.672;23.256;2023-04-02T07:44:24;93657.47;;;13.95;49.07
6128;BME280;7073;42.672;23.256;2023-04-02T07:46:51;93653.16;;;13.79;48.37
6128;BME280;7073;42.672;23.256;2023-04-02T07:49:20;93657.91;;;14.29;47.76
6128;BME280;7073;42.672;23.256;2023-04-02T07:51:48;93668.56;;;14.64;47.04
6128;BME280;7073;42.672;23.256;2023-04-02T07:54:17;93663.31;;;14.64;45.87
6128;BME280;7073;42.672;23.256;2023-04-02T07:56:43;93664.41;;;14.17;46.53
6128;BME280;7073;42.672;23.256;2023-04-02T07:59:10;93665.06;;;13.97;46.75
6128;BME280;7073;42.672;23.256;2023-04-02T08:01:37;93672.34;;;13.90;47.15
6128;BME280;7073;42.672;23.256;2023-04-02T08:04:04;93659.38;;;14.15;47.11
6128;BME280;7073;42.672;23.256;2023-04-02T08:06:33;93669.53;;;14.06;47.83
6128;BME280;7073;42.672;23.256;2023-04-02T08:09:00;93670.31;;;14.44;46.98
6128;BME280;7073;42.672;23.256;2023-04-02T08:11:27;93672.78;;;14.19;47.20
6128;BME280;7073;42.672;23.256;2023-04-02T08:13:53;93675.75;;;13.90;47.34
6128;BME280;7073;42.672;23.256;2023-04-02T08:16:20;93684.78;;;13.73;47.84
6128;BME280;7073;42.672;23.256;2023-04-02T08:18:48;93668.00;;;13.69;48.61
6128;BME280;7073;42.672;23.256;2023-04-02T08:21:15;93677.16;;;13.66;49.12
6128;BME280;7073;42.672;23.256;2023-04-02T08:23:43;93662.53;;;13.75;48.24
6128;BME280;7073;42.672;23.256;2023-04-02T08:26:16;93676.75;;;13.84;47.65
6128;BME280;7073;42.672;23.256;2023-04-02T08:28:43;93678.31;;;14.22;47.25
6128;BME280;7073;42.672;23.256;2023-04-02T08:31:09;93684.75;;;14.51;47.57
6128;BME280;7073;42.672;23.256;2023-04-02T08:33:37;93678.97;;;14.49;46.88
6128;BME280;7073;42.672;23.256;2023-04-02T08:36:04;93674.66;;;14.28;46.39
6128;BME280;7073;42.672;23.256;2023-04-02T08:38:31;93691.16;;;14.24;47.16
6128;BME280;7073;42.672;23.256;2023-04-02T08:41:00;93692.19;;;14.69;46.19
6128;BME280;7073;42.672;23.256;2023-04-02T08:44:09;93685.38;;;14.74;45.79
6128;BME280;7073;42.672;23.256;2023-04-02T08:46:42;93699.00;;;14.76;46.30
6128;BME280;7073;42.672;23.256;2023-04-02T08:49:13;93697.13;;;14.61;44.70
6128;BME280;7073;42.672;23.256;2023-04-02T08:51:41;93696.38;;;14.70;44.98
6128;BME280;7073;42.672;23.256;2023-04-02T08:54:14;93697.34;;;15.21;44.62
6128;BME280;7073;42.672;23.256;2023-04-02T08:56:48;93701.56;;;15.43;43.89
6128;BME280;7073;42.672;23.256;2023-04-02T08:59:22;93696.31;;;15.27;43.66
6128;BME280;7073;42.672;23.256;2023-04-02T09:01:56;93696.31;;;14.55;43.32
6128;BME280;7073;42.672;23.256;2023-04-02T09:04:26;93696.31;;;15.27;44.91
6128;BME280;7073;42.672;23.256;2023-04-02T09:06:55;93690.25;;;15.22;43.16
6128;BME280;7073;42.672;23.256;2023-04-02T09:09:23;93692.69;;;15.74;42.77
6128;BME280;7073;42.672;23.256;2023-04-02T09:11:54;93688.69;;;16.27;42.61
6128;BME280;7073;42.672;23.256;2023-04-02T09:14:30;93685.53;;;15.39;43.12
6128;BME280;7073;42.672;23.256;2023-04-02T09:17:03;93691.09;;;15.58;42.51
6128;BME280;7073;42.672;23.256;2023-04-02T09:19:33;93701.09;;;15.51;42.01
6128;BME280;7073;42.672;23.256;2023-04-02T09:22:06;93692.09;;;15.42;42.42
6128;BME280;7073;42.672;23.256;2023-04-02T09:24:35;93697.56;;;15.15;42.92
6128;BME280;7073;42.672;23.256;2023-04-02T09:27:15;93685.63;;;14.67;44.45
6128;BME280;7073;42.672;23.256;2023-04-02T09:29:44;93686.72;;;14.81;44.11
6128;BME280;7073;42.672;23.256;2023-04-02T09:32:32;93689.44;;;15.06;43.90
6128;BME280;7073;42.672;23.256;2023-04-02T09:35:06;93680.75;;;15.01;44.17
6128;BME280;7073;42.672;23.256;2023-04-02T09:37:34;93676.31;;;15.11;43.80
6128;BME280;7073;42.672;23.256;2023-04-02T09:40:22;93674.50;;;15.27;44.25
6128;BME280;7073;42.672;23.256;2023-04-02T09:43:04;93675.25;;;15.17;44.01
6128;BME280;7073;42.672;23.256;2023-04-02T09:45:31;93668.00;;;15.70;43.33
6128;BME280;7073;42.672;23.256;2023-04-02T09:47:58;93665.38;;;15.90;42.77
6128;BME280;7073;42.672;23.256;2023-04-02T09:50:27;93673.75;;;15.97;40.55
6128;BME280;7073;42.672;23.256;2023-04-02T09:52:54;93672.09;;;16.36;41.39
6128;BME280;7073;42.672;23.256;2023-04-02T09:55:23;93664.66;;;16.69;39.95
6128;BME280;7073;42.672;23.256;2023-04-02T09:58:09;93669.75;;;16.35;40.22
6128;BME280;7073;42.672;23.256;2023-04-02T10:00:37;93663.94;;;16.48;40.38
6128;BME280;7073;42.672;23.256;2023-04-02T10:03:22;93655.66;;;16.85;40.27
6128;BME280;7073;42.672;23.256;2023-04-02T10:06:04;93650.50;;;16.49;40.23
6128;BME280;7073;42.672;23.256;2023-04-02T10:08:32;93658.19;;;16.31;39.90
6128;BME280;7073;42.672;23.256;2023-04-02T10:11:01;93654.41;;;16.72;39.27
6128;BME280;7073;42.672;23.256;2023-04-02T10:13:33;93654.69;;;16.66;38.09
6128;BME280;7073;42.672;23.256;2023-04-02T10:16:04;93636.91;;;17.01;38.45
6128;BME280;7073;42.672;23.256;2023-04-02T10:18:40;93632.94;;;17.43;38.37
6128;BME280;7073;42.672;23.256;2023-04-02T10:21:09;93632.84;;;17.87;36.51
6128;BME280;7073;42.672;23.256;2023-04-02T10:23:37;93635.41;;;18.20;37.31
6128;BME280;7073;42.672;23.256;2023-04-02T10:26:14;93645.88;;;18.07;37.14
6128;BME280;7073;42.672;23.256;2023-04-02T10:28:59;93625.00;;;18.34;36.93
6128;BME280;7073;42.672;23.256;2023-04-02T10:31:35;93628.53;;;18.24;36.27
6128;BME280;7073;42.672;23.256;2023-04-02T10:34:07;93635.63;;;18.00;36.90
6128;BME280;7073;42.672;23.256;2023-04-02T10:36:45;93643.31;;;18.49;35.96
6128;BME280;7073;42.672;23.256;2023-04-02T10:39:17;93632.09;;;17.47;36.81
6128;BME280;7073;42.672;23.256;2023-04-02T10:41:48;93631.63;;;16.96;37.44
6128;BME280;7073;42.672;23.256;2023-04-02T10:44:33;93625.72;;;16.71;41.13
6128;BME280;7073;42.672;23.256;2023-04-02T10:47:15;93614.78;;;16.43;42.21
6128;BME280;7073;42.672;23.256;2023-04-02T10:49:49;93627.91;;;16.38;42.58
6128;BME280;7073;42.672;23.256;2023-04-02T10:52:25;93620.06;;;16.28;42.92
6128;BME280;7073;42.672;23.256;2023-04-02T10:54:53;93616.50;;;17.22;40.91
6128;BME280;7073;42.672;23.256;2023-04-02T10:57:35;93620.84;;;16.98;41.84
6128;BME280;7073;42.672;23.256;2023-04-02T11:00:12;93612.81;;;17.18;41.30
6128;BME280;7073;42.672;23.256;2023-04-02T11:02:46;93616.16;;;17.29;40.74
6128;BME280;7073;42.672;23.256;2023-04-02T11:05:21;93611.53;;;17.49;41.29
6128;BME280;7073;42.672;23.256;2023-04-02T11:07:55;93618.94;;;17.47;41.26
6128;BME280;7073;42.672;23.256;2023-04-02T11:10:24;93619.84;;;16.89;42.06
6128;BME280;7073;42.672;23.256;2023-04-02T11:12:56;93616.94;;;16.26;43.44
6128;BME280;7073;42.672;23.256;2023-04-02T11:15:27;93619.41;;;16.72;42.26
6128;BME280;7073;42.672;23.256;2023-04-02T11:17:55;93618.91;;;16.70;42.42
6128;BME280;7073;42.672;23.256;2023-04-02T11:20:42;93616.47;;;16.09;42.87
6128;BME280;7073;42.672;23.256;2023-04-02T11:23:10;93609.34;;;16.10;42.85
6128;BME280;7073;42.672;23.256;2023-04-02T11:25:38;93615.34;;;16.25;42.58
6128;BME280;7073;42.672;23.256;2023-04-02T11:28:13;93612.19;;;16.28;41.77
6128;BME280;7073;42.672;23.256;2023-04-02T11:30:47;93617.78;;;16.12;42.59
6128;BME280;7073;42.672;23.256;2023-04-02T11:33:36;93617.72;;;16.32;41.95
6128;BME280;7073;42.672;23.256;2023-04-02T11:39:46;93606.81;;;16.69;41.46
6128;BME280;7073;42.672;23.256;2023-04-02T11:42:30;93600.44;;;16.80;41.08
6128;BME280;7073;42.672;23.256;2023-04-02T11:47:41;93608.34;;;16.80;40.95
6128;BME280;7073;42.672;23.256;2023-04-02T11:50:27;93600.25;;;16.66;40.90
6128;BME280;7073;42.672;23.256;2023-04-02T11:52:57;93592.06;;;16.68;40.75
6128;BME280;7073;42.672;23.256;2023-04-02T11:55:28;93597.56;;;16.76;41.23
6128;BME280;7073;42.672;23.256;2023-04-02T11:58:23;93598.94;;;16.64;41.28
6128;BME280;7073;42.672;23.256;2023-04-02T12:07:18;93598.84;;;16.05;42.22
6128;BME280;7073;42.672;23.256;2023-04-02T12:09:52;93588.09;;;16.06;41.93
6128;BME280;7073;42.672;23.256;2023-04-02T12:12:25;93601.44;;;16.25;41.72
6128;BME280;7073;42.672;23.256;2023-04-02T12:14:53;93599.72;;;16.64;41.12
6128;BME280;7073;42.672;23.256;2023-04-02T12:17:27;93596.53;;;17.16;40.79
6128;BME280;7073;42.672;23.256;2023-04-02T12:19:58;93602.25;;;17.23;39.25
6128;BME280;7073;42.672;23.256;2023-04-02T12:22:28;93582.84;;;16.70;40.32
6128;BME280;7073;42.672;23.256;2023-04-02T12:25:02;93608.94;;;16.51;40.54
6128;BME280;7073;42.672;23.256;2023-04-02T12:27:29;93602.16;;;16.40;40.80
6128;BME280;7073;42.672;23.256;2023-04-02T12:30:11;93601.53;;;17.12;39.42
6128;BME280;7073;42.672;23.256;2023-04-02T12:32:38;93602.47;;;16.93;39.44
6128;BME280;7073;42.672;23.256;2023-04-02T12:35:25;93597.88;;;16.60;39.65
6128;BME280;7073;42.672;23.256;2023-04-02T12:37:52;93589.88;;;17.24;39.19
6128;BME280;7073;42.672;23.256;2023-04-02T12:40:20;93588.75;;;17.68;38.14
6128;BME280;7073;42.672;23.256;2023-04-02T12:42:46;93591.69;;;18.19;38.14
6128;BME280;7073;42.672;23.256;2023-04-02T12:45:21;93587.53;;;18.79;35.62
6128;BME280;7073;42.672;23.256;2023-04-02T12:47:48;93591.81;;;19.13;35.44
6128;BME280;7073;42.672;23.256;2023-04-02T12:50:19;93586.44;;;19.87;33.86
6128;BME280;7073;42.672;23.256;2023-04-02T12:52:48;93574.91;;;19.51;34.98
6128;BME280;7073;42.672;23.256;2023-04-02T12:55:19;93574.63;;;19.98;33.75
6128;BME280;7073;42.672;23.256;2023-04-02T12:57:47;93576.81;;;20.51;33.78
6128;BME280;7073;42.672;23.256;2023-04-02T13:00:29;93578.78;;;20.59;32.96
6128;BME280;7073;42.672;23.256;2023-04-02T13:03:13;93574.84;;;19.37;35.41
6128;BME280;7073;42.672;23.256;2023-04-02T13:05:44;93568.16;;;19.91;33.97
6128;BME280;7073;42.672;23.256;2023-04-02T13:08:15;93574.41;;;19.95;33.63
6128;BME280;7073;42.672;23.256;2023-04-02T13:10:43;93567.78;;;19.65;34.33
6128;BME280;7073;42.672;23.256;2023-04-02T13:13:16;93573.41;;;18.47;35.32
6128;BME280;7073;42.672;23.256;2023-04-02T13:15:59;93564.69;;;18.04;36.00
6128;BME280;7073;42.672;23.256;2023-04-02T13:18:26;93568.25;;;18.60;36.09
6128;BME280;7073;42.672;23.256;2023-04-02T13:20:55;93570.25;;;18.50;36.90
6128;BME280;7073;42.672;23.256;2023-04-02T13:23:30;93572.75;;;18.12;35.98
6128;BME280;7073;42.672;23.256;2023-04-02T13:25:59;93560.78;;;17.39;36.84
6128;BME280;7073;42.672;23.256;2023-04-02T13:28:26;93558.69;;;17.41;37.68
6128;BME280;7073;42.672;23.256;2023-04-02T13:30:53;93551.97;;;17.58;37.35
6128;BME280;7073;42.672;23.256;2023-04-02T13:33:20;93557.75;;;17.60;37.48
6128;BME280;7073;42.672;23.256;2023-04-02T13:35:47;93557.06;;;17.45;37.25
6128;BME280;7073;42.672;23.256;2023-04-02T13:38:15;93553.41;;;17.07;36.67
6128;BME280;7073;42.672;23.256;2023-04-02T13:40:42;93554.47;;;17.06;37.18
6128;BME280;7073;42.672;23.256;2023-04-02T13:43:15;93554.41;;;17.16;37.21
6128;BME280;7073;42.672;23.256;2023-04-02T13:45:44;93545.78;;;17.05;37.47
6128;BME280;7073;42.672;23.256;2023-04-02T13:48:14;93553.38;;;17.12;37.12
6128;BME280;7073;42.672;23.256;2023-04-02T13:50:42;93562.91;;;17.03;37.11
6128;BME280;7073;42.672;23.256;2023-04-02T13:53:18;93543.03;;;16.87;36.93
6128;BME280;7073;42.672;23.256;2023-04-02T13:55:46;93539.78;;;16.61;37.17